createdAt,value
2023-02-24T00:01:39.963Z,25.00
2023-02-24T00:04:12.824Z,24.73
2023-02-24T00:06:42.287Z,24.33
2023-02-24T00:09:19.320Z,24.70
2023-02-24T00:12:10.655Z,24.70
2023-02-24T00:14:40.287Z,23.93
2023-02-24T00:17:08.638Z,25.00
2023-02-24T00:19:36.424Z,24.40
2023-02-24T00:22:05.009Z,22.00
2023-02-24T00:24:33.600Z,24.20
2023-02-24T00:27:07.432Z,23.63
2023-02-24T00:29:34.333Z,22.83
2023-02-24T00:32:02.403Z,25.27
2023-02-24T00:34:30.983Z,23.60
2023-02-24T00:36:58.674Z,24.87
2023-02-24T00:39:33.121Z,27.23
2023-02-24T00:42:07.132Z,26.70
2023-02-24T00:44:44.527Z,24.77
2023-02-24T00:47:12.175Z,28.07
2023-02-24T00:49:43.347Z,23.57
2023-02-24T00:52:13.876Z,26.40
2023-02-24T00:54:44.437Z,25.90
2023-02-24T00:57:12.118Z,26.50
2023-02-24T00:59:39.591Z,26.30
2023-02-24T01:02:07.347Z,28.93
2023-02-24T01:04:34.574Z,27.67
2023-02-24T01:07:01.812Z,26.53
2023-02-24T01:09:30.952Z,28.10
2023-02-24T01:12:16.996Z,28.33
2023-02-24T01:14:47.709Z,25.73
2023-02-24T01:17:16.101Z,25.40
2023-02-24T01:19:44.356Z,27.20
2023-02-24T01:22:15.129Z,26.83
2023-02-24T01:24:43.698Z,25.87
2023-02-24T01:27:17.676Z,27.20
2023-02-24T01:29:45.316Z,24.80
2023-02-24T01:32:21.573Z,26.80
2023-02-24T01:34:52.134Z,26.17
2023-02-24T01:37:20.064Z,24.90
2023-02-24T01:39:47.889Z,26.03
2023-02-24T01:42:19.696Z,26.40
2023-02-24T01:44:46.574Z,25.47
2023-02-24T01:47:14.925Z,25.17
2023-02-24T01:49:45.964Z,26.60
2023-02-24T01:52:24.742Z,22.80
2023-02-24T01:54:55.268Z,24.67
2023-02-24T01:57:26.185Z,24.13
2023-02-24T02:00:02.089Z,23.03
2023-02-24T02:02:29.574Z,24.77
2023-02-24T02:05:06.131Z,23.27
2023-02-24T02:07:33.220Z,22.53
2023-02-24T02:10:03.999Z,22.10
2023-02-24T02:12:37.068Z,22.63
2023-02-24T02:15:05.626Z,23.03
2023-02-24T02:17:42.103Z,24.80
2023-02-24T02:20:31.230Z,24.23
2023-02-24T02:23:19.715Z,23.10
2023-02-24T02:25:58.497Z,25.33
2023-02-24T02:28:54.035Z,24.83
2023-02-24T02:31:33.217Z,21.43
2023-02-24T02:34:18.904Z,23.87
2023-02-24T02:37:14.786Z,24.57
2023-02-24T02:39:59.284Z,22.63
2023-02-24T02:42:39.042Z,25.33
2023-02-24T02:45:24.457Z,23.43
2023-02-24T02:47:58.404Z,24.23
2023-02-24T02:50:33.011Z,24.30
2023-02-24T02:53:14.071Z,25.23
2023-02-24T02:55:53.466Z,24.37
2023-02-24T02:58:26.447Z,25.80
2023-02-24T03:01:05.051Z,27.60
2023-02-24T03:03:49.223Z,27.27
2023-02-24T03:06:24.533Z,26.97
2023-02-24T03:09:14.752Z,25.40
2023-02-24T03:12:07.868Z,28.47
2023-02-24T03:14:39.300Z,26.40
2023-02-24T03:17:17.351Z,27.27
2023-02-24T03:19:47.044Z,26.57
2023-02-24T03:22:40.967Z,25.80
2023-02-24T03:25:08.982Z,25.87
2023-02-24T03:27:46.976Z,25.70
2023-02-24T03:30:21.326Z,27.00
2023-02-24T03:33:07.313Z,24.60
2023-02-24T03:35:44.784Z,25.10
2023-02-24T03:38:14.093Z,25.10
2023-02-24T03:40:43.455Z,27.03
2023-02-24T03:43:23.002Z,26.23
2023-02-24T03:45:50.020Z,27.67
2023-02-24T03:48:17.416Z,25.40
2023-02-24T03:50:45.033Z,26.03
2023-02-24T03:53:33.190Z,25.97
2023-02-24T03:56:18.793Z,25.63
2023-02-24T03:58:59.588Z,26.03
2023-02-24T04:01:32.825Z,25.53
2023-02-24T04:04:10.864Z,26.40
2023-02-24T04:06:47.120Z,26.33
2023-02-24T04:09:21.756Z,26.17
2023-02-24T04:11:56.523Z,24.57
2023-02-24T04:14:30.724Z,25.80
2023-02-24T04:17:09.023Z,27.57
2023-02-24T04:19:40.527Z,27.53
2023-02-24T04:22:10.515Z,28.87
2023-02-24T04:24:39.538Z,28.80
2023-02-24T04:27:11.453Z,31.37
2023-02-24T04:29:47.305Z,30.53
2023-02-24T04:32:17.556Z,30.07
2023-02-24T04:34:45.581Z,30.53
2023-02-24T04:37:12.385Z,30.13
2023-02-24T04:39:39.267Z,33.77
2023-02-24T04:42:06.553Z,32.30
2023-02-24T04:44:33.365Z,30.87
2023-02-24T04:47:00.697Z,31.47
2023-02-24T04:49:27.696Z,31.23
2023-02-24T04:51:54.458Z,32.87
2023-02-24T04:54:21.402Z,33.40
2023-02-24T04:56:50.706Z,31.80
2023-02-24T04:59:21.741Z,32.93
2023-02-24T05:01:53.043Z,35.40
2023-02-24T05:04:20.131Z,36.37
2023-02-24T05:06:47.121Z,35.80
2023-02-24T05:09:18.566Z,35.00
2023-02-24T05:11:51.729Z,37.33
2023-02-24T05:14:21.195Z,34.93
2023-02-24T05:16:49.262Z,36.70
2023-02-24T05:19:37.552Z,36.97
2023-02-24T05:22:07.078Z,34.97
2023-02-24T05:24:34.713Z,33.47
2023-02-24T05:27:03.673Z,37.03
2023-02-24T05:29:34.494Z,36.80
2023-02-24T05:32:02.511Z,39.20
2023-02-24T05:34:30.975Z,35.47
2023-02-24T05:36:59.554Z,37.90
2023-02-24T05:39:26.583Z,36.10
2023-02-24T05:41:54.813Z,36.43
2023-02-24T05:44:23.350Z,38.93
2023-02-24T05:46:56.709Z,37.60
2023-02-24T05:49:31.300Z,40.63
2023-02-24T05:52:00.829Z,38.80
2023-02-24T05:54:30.740Z,36.77
2023-02-24T05:57:07.028Z,39.00
2023-02-24T05:59:34.418Z,36.80
2023-02-24T06:02:09.896Z,37.33
2023-02-24T06:04:45.896Z,36.20
2023-02-24T06:07:14.170Z,38.73
2023-02-24T06:09:45.007Z,38.57
2023-02-24T06:12:14.502Z,41.47
2023-02-24T06:14:42.239Z,41.33
2023-02-24T06:17:09.381Z,37.03
2023-02-24T06:19:36.356Z,39.90
2023-02-24T06:22:03.863Z,38.60
2023-02-24T06:24:33.089Z,40.77
2023-02-24T06:27:09.837Z,40.10
2023-02-24T06:29:37.696Z,37.13
2023-02-24T06:32:10.912Z,39.80
2023-02-24T06:34:38.873Z,39.17
2023-02-24T06:37:07.356Z,41.97
2023-02-24T06:39:37.162Z,41.80
2023-02-24T06:42:05.236Z,43.83
2023-02-24T06:44:33.164Z,42.80
2023-02-24T06:47:00.432Z,42.30
2023-02-24T06:49:27.814Z,42.20
2023-02-24T06:51:55.638Z,42.60
2023-02-24T06:54:23.298Z,45.30
2023-02-24T06:56:50.369Z,45.20
2023-02-24T06:59:21.862Z,46.47
2023-02-24T07:01:49.434Z,46.27
2023-02-24T07:04:17.994Z,43.80
2023-02-24T07:06:52.310Z,51.90
2023-02-24T07:09:23.013Z,48.23
2023-02-24T07:11:55.941Z,45.27
2023-02-24T07:14:29.248Z,46.53
2023-02-24T07:16:58.026Z,47.93
2023-02-24T07:19:29.130Z,47.63
2023-02-24T07:22:02.012Z,51.07
2023-02-24T07:24:36.325Z,50.73
2023-02-24T07:27:06.249Z,44.00
2023-02-24T07:29:34.548Z,48.10
2023-02-24T07:32:03.755Z,50.03
2023-02-24T07:34:31.500Z,45.40
2023-02-24T07:36:58.655Z,45.90
2023-02-24T07:39:25.725Z,48.77
2023-02-24T07:41:57.114Z,45.80
2023-02-24T07:44:24.406Z,44.30
2023-02-24T07:46:51.683Z,44.63
2023-02-24T07:49:26.062Z,47.63
2023-02-24T07:51:57.624Z,47.43
2023-02-24T07:54:27.320Z,46.80
2023-02-24T07:56:57.214Z,46.20
2023-02-24T07:59:27.328Z,46.53
2023-02-24T08:01:55.969Z,47.90
2023-02-24T08:04:30.524Z,48.90
2023-02-24T08:07:02.487Z,47.93
2023-02-24T08:09:44.657Z,51.17
2023-02-24T08:12:17.849Z,49.43
2023-02-24T08:14:50.843Z,49.00
2023-02-24T08:17:26.852Z,47.07
2023-02-24T08:20:15.513Z,53.03
2023-02-24T08:22:44.455Z,46.80
2023-02-24T08:25:18.482Z,48.67
2023-02-24T08:28:06.408Z,47.47
2023-02-24T08:30:38.988Z,45.47
2023-02-24T08:33:09.151Z,46.57
2023-02-24T08:35:38.352Z,48.60
2023-02-24T08:38:07.777Z,44.30
2023-02-24T08:40:39.710Z,46.23
2023-02-24T08:43:31.155Z,49.23
2023-02-24T08:46:03.699Z,49.60
2023-02-24T08:48:38.866Z,46.77
2023-02-24T08:51:15.821Z,44.10
2023-02-24T08:53:44.087Z,46.07
2023-02-24T08:56:14.140Z,47.33
2023-02-24T08:58:49.588Z,44.80
2023-02-24T09:01:24.331Z,42.37
2023-02-24T09:03:55.414Z,43.63
2023-02-24T09:06:44.197Z,47.70
2023-02-24T09:09:21.439Z,43.63
2023-02-24T09:11:59.874Z,49.87
2023-02-24T09:14:36.395Z,43.73
2023-02-24T09:17:06.562Z,43.10
2023-02-24T09:19:51.867Z,43.00
2023-02-24T09:22:40.778Z,44.23
2023-02-24T09:25:19.112Z,42.63
2023-02-24T09:28:09.653Z,42.23
2023-02-24T09:30:51.354Z,38.23
2023-02-24T09:33:29.914Z,39.43
2023-02-24T09:36:20.235Z,41.73
2023-02-24T09:38:59.648Z,41.70
2023-02-24T09:41:54.752Z,39.30
2023-02-24T09:44:44.667Z,39.20
2023-02-24T09:47:53.436Z,39.97
2023-02-24T09:50:46.872Z,41.20
2023-02-24T09:53:17.387Z,40.33
2023-02-24T09:56:30.751Z,40.93
2023-02-24T09:59:10.325Z,37.23
2023-02-24T10:01:54.687Z,35.17
2023-02-24T10:04:49.247Z,36.20
2023-02-24T10:07:23.210Z,38.87
2023-02-24T10:10:19.868Z,31.40
2023-02-24T10:12:53.095Z,31.13
2023-02-24T10:16:07.400Z,32.33
2023-02-24T10:19:15.255Z,30.93
2023-02-24T10:22:03.321Z,29.53
2023-02-24T10:25:01.444Z,27.00
2023-02-24T10:27:41.364Z,23.63
2023-02-24T10:30:42.615Z,20.73
2023-02-24T10:33:38.902Z,21.97
2023-02-24T10:36:09.367Z,23.43
2023-02-24T10:38:45.574Z,22.00
2023-02-24T10:41:16.192Z,24.20
2023-02-24T10:43:56.771Z,23.80
2023-02-24T10:46:42.117Z,26.40
2023-02-24T10:49:16.383Z,29.73
2023-02-24T10:51:51.144Z,30.93
2023-02-24T10:54:45.506Z,32.43
2023-02-24T10:57:38.233Z,34.80
2023-02-24T11:00:51.188Z,33.57
2023-02-24T11:03:35.891Z,38.63
2023-02-24T11:06:03.644Z,45.80
2023-02-24T11:08:52.465Z,46.93
2023-02-24T11:11:30.858Z,48.60
2023-02-24T11:14:19.048Z,39.33
2023-02-24T11:17:10.321Z,42.10
2023-02-24T11:19:49.442Z,39.87
2023-02-24T11:22:39.553Z,40.43
2023-02-24T11:25:36.687Z,41.00
2023-02-24T11:28:05.586Z,41.70
2023-02-24T11:30:42.122Z,43.23
2023-02-24T11:33:41.239Z,44.70
2023-02-24T11:36:22.780Z,47.40
2023-02-24T11:39:18.899Z,40.53
2023-02-24T11:41:53.713Z,43.73
2023-02-24T11:44:47.488Z,38.57
2023-02-24T11:47:18.222Z,37.13
2023-02-24T11:50:16.217Z,43.97
2023-02-24T11:52:46.950Z,42.37
2023-02-24T11:55:40.047Z,46.40
2023-02-24T11:58:20.544Z,44.00
2023-02-24T12:01:25.676Z,44.67
2023-02-24T12:04:15.000Z,45.20
2023-02-24T12:07:19.647Z,38.50
2023-02-24T12:10:16.154Z,40.17
2023-02-24T12:12:59.731Z,38.10
2023-02-24T12:15:50.424Z,40.83
2023-02-24T12:18:27.714Z,38.70
2023-02-24T12:21:05.913Z,42.13
2023-02-24T12:23:41.964Z,38.77
2023-02-24T12:26:25.929Z,39.10
2023-02-24T12:29:07.588Z,40.50
2023-02-24T12:31:54.617Z,36.10
2023-02-24T12:34:55.151Z,33.43
2023-02-24T12:37:30.770Z,36.73
2023-02-24T12:40:16.220Z,35.50
2023-02-24T12:42:45.713Z,35.73
2023-02-24T12:45:17.271Z,38.30
2023-02-24T12:47:50.037Z,32.93
2023-02-24T12:50:27.500Z,34.20
2023-02-24T12:53:20.524Z,28.47
2023-02-24T12:56:11.726Z,27.00
2023-02-24T12:58:41.822Z,30.53
2023-02-24T13:01:46.812Z,30.90
2023-02-24T13:04:25.635Z,31.17
2023-02-24T13:07:09.866Z,31.90
2023-02-24T13:09:42.556Z,32.67
2023-02-24T13:12:09.494Z,33.57
2023-02-24T13:14:39.020Z,30.50
2023-02-24T13:17:11.880Z,35.63
2023-02-24T13:19:43.471Z,33.83
2023-02-24T13:22:13.008Z,30.73
2023-02-24T13:24:56.523Z,32.97
2023-02-24T13:27:38.986Z,33.37
2023-02-24T13:30:11.549Z,30.90
2023-02-24T13:32:59.715Z,30.47
2023-02-24T13:35:26.582Z,32.50
2023-02-24T13:37:53.954Z,32.40
2023-02-24T13:40:23.795Z,33.37
2023-02-24T13:42:57.114Z,38.30
2023-02-24T13:45:29.261Z,34.87
2023-02-24T13:48:10.996Z,38.47
2023-02-24T13:50:55.768Z,38.30
2023-02-24T13:53:47.124Z,32.40
2023-02-24T13:56:40.454Z,34.67
2023-02-24T13:59:31.669Z,33.37
2023-02-24T14:01:59.801Z,30.90
2023-02-24T14:04:36.252Z,29.73
2023-02-24T14:07:09.100Z,31.03
2023-02-24T14:09:45.015Z,32.27
2023-02-24T14:12:19.618Z,32.60
2023-02-24T14:14:47.710Z,28.37
2023-02-24T14:17:28.846Z,27.37
2023-02-24T14:20:14.455Z,25.67
2023-02-24T14:22:50.501Z,31.30
2023-02-24T14:25:18.032Z,25.70
2023-02-24T14:27:48.343Z,28.40
2023-02-24T14:30:26.443Z,29.47
2023-02-24T14:32:54.087Z,30.60
2023-02-24T14:35:46.322Z,26.57
2023-02-24T14:38:38.445Z,31.60
2023-02-24T14:41:07.977Z,27.67
2023-02-24T14:43:41.956Z,22.33
2023-02-24T14:46:08.806Z,22.70
2023-02-24T14:48:36.393Z,31.70
2023-02-24T14:51:21.165Z,27.50
2023-02-24T14:53:53.976Z,21.47
2023-02-24T14:56:23.781Z,26.97
2023-02-24T14:58:59.406Z,21.53
2023-02-24T15:01:43.575Z,24.47
2023-02-24T15:04:29.106Z,21.03
2023-02-24T15:06:56.055Z,25.00
2023-02-24T15:09:27.185Z,24.00
2023-02-24T15:11:56.184Z,24.07
2023-02-24T15:14:28.243Z,22.20
2023-02-24T15:16:58.075Z,26.60
2023-02-24T15:19:32.090Z,22.37
2023-02-24T15:21:59.003Z,22.17
2023-02-24T15:24:34.264Z,25.30
2023-02-24T15:27:25.932Z,19.60
2023-02-24T15:30:35.900Z,19.70
2023-02-24T15:33:24.716Z,21.20
2023-02-24T15:35:54.659Z,18.27
2023-02-24T15:38:25.068Z,22.17
2023-02-24T15:41:00.780Z,19.80
2023-02-24T15:43:37.338Z,17.23
2023-02-24T15:46:31.032Z,17.17
2023-02-24T15:49:02.951Z,17.77
2023-02-24T15:51:39.848Z,18.97
2023-02-24T15:54:11.231Z,22.20
2023-02-24T15:56:38.163Z,19.97
2023-02-24T15:59:06.085Z,17.87
2023-02-24T16:01:33.627Z,16.77
2023-02-24T16:04:01.086Z,19.80
2023-02-24T16:06:28.870Z,19.00
2023-02-24T16:08:57.072Z,17.83
2023-02-24T16:11:28.863Z,22.00
2023-02-24T16:14:05.084Z,18.43
2023-02-24T16:16:33.367Z,16.07
2023-02-24T16:19:15.872Z,16.43
2023-02-24T16:21:43.321Z,17.80
2023-02-24T16:24:10.230Z,18.87
2023-02-24T16:26:39.691Z,18.60
2023-02-24T16:29:11.780Z,20.27
2023-02-24T16:31:39.831Z,18.67
2023-02-24T16:34:07.887Z,17.97
2023-02-24T16:36:35.638Z,19.60
2023-02-24T16:39:04.866Z,17.87
2023-02-24T16:41:31.725Z,18.20
2023-02-24T16:43:58.529Z,20.10
2023-02-24T16:46:29.540Z,25.73
2023-02-24T16:48:56.361Z,18.90
2023-02-24T16:51:23.280Z,20.00
2023-02-24T16:53:50.199Z,16.73
2023-02-24T16:56:17.036Z,19.57
2023-02-24T16:58:43.922Z,17.37
2023-02-24T17:01:17.910Z,18.67
2023-02-24T17:03:47.243Z,19.03
2023-02-24T17:06:14.365Z,17.13
2023-02-24T17:08:46.146Z,17.77
2023-02-24T17:11:15.581Z,18.20
2023-02-24T17:13:42.451Z,18.00
2023-02-24T17:16:09.290Z,16.90
2023-02-24T17:18:36.457Z,19.93
2023-02-24T17:21:04.413Z,16.93
2023-02-24T17:23:32.348Z,18.37
2023-02-24T17:26:01.800Z,17.90
2023-02-24T17:28:28.862Z,19.30
2023-02-24T17:30:55.879Z,17.77
2023-02-24T17:33:23.010Z,17.27
2023-02-24T17:35:49.852Z,23.77
2023-02-24T17:38:19.291Z,16.30
2023-02-24T17:40:47.000Z,15.13
2023-02-24T17:43:14.061Z,15.33
2023-02-24T17:45:44.401Z,13.60
2023-02-24T17:48:13.464Z,13.53
2023-02-24T17:50:47.378Z,16.20
2023-02-24T17:53:15.067Z,12.63
2023-02-24T17:55:55.841Z,14.33
2023-02-24T17:58:26.710Z,15.00
2023-02-24T18:00:53.602Z,11.20
2023-02-24T18:03:20.517Z,13.90
2023-02-24T18:05:47.344Z,12.27
2023-02-24T18:08:14.642Z,10.53
2023-02-24T18:10:41.398Z,10.40
2023-02-24T18:13:08.173Z,9.53
2023-02-24T18:15:34.995Z,10.17
2023-02-24T18:18:01.729Z,10.43
2023-02-24T18:20:29.714Z,10.23
2023-02-24T18:22:57.190Z,10.10
2023-02-24T18:25:23.887Z,9.53
2023-02-24T18:27:50.597Z,10.13
2023-02-24T18:30:18.621Z,8.40
2023-02-24T18:32:45.874Z,10.47
2023-02-24T18:35:14.385Z,10.00
2023-02-24T18:37:43.855Z,9.80
2023-02-24T18:40:11.254Z,9.93
2023-02-24T18:42:38.730Z,8.43
2023-02-24T18:45:06.654Z,8.90
2023-02-24T18:47:33.498Z,10.10
2023-02-24T18:50:00.508Z,9.60
2023-02-24T18:52:27.368Z,10.23
2023-02-24T18:54:55.353Z,11.77
2023-02-24T18:57:22.211Z,12.60
2023-02-24T18:59:52.223Z,12.73
2023-02-24T19:02:19.009Z,15.77
2023-02-24T19:04:45.986Z,14.30
2023-02-24T19:07:13.317Z,12.20
2023-02-24T19:09:41.728Z,14.63
2023-02-24T19:12:08.956Z,15.80
2023-02-24T19:14:37.189Z,15.30
2023-02-24T19:17:04.085Z,18.90
2023-02-24T19:19:30.962Z,16.70
2023-02-24T19:21:57.839Z,20.10
2023-02-24T19:24:24.657Z,14.80
2023-02-24T19:26:53.247Z,16.47
2023-02-24T19:29:28.007Z,17.80
2023-02-24T19:31:57.543Z,17.40
2023-02-24T19:34:24.596Z,16.33
2023-02-24T19:36:51.640Z,18.90
2023-02-24T19:39:18.906Z,18.37
2023-02-24T19:41:47.027Z,17.67
2023-02-24T19:44:15.295Z,19.10
2023-02-24T19:46:43.111Z,21.30
2023-02-24T19:49:10.013Z,18.03
2023-02-24T19:51:37.027Z,18.10
2023-02-24T19:54:06.229Z,17.63
2023-02-24T19:56:37.217Z,21.87
2023-02-24T19:59:06.736Z,19.90
2023-02-24T20:01:33.891Z,19.73
2023-02-24T20:04:03.065Z,19.97
2023-02-24T20:06:35.727Z,18.70
2023-02-24T20:09:16.662Z,21.60
2023-02-24T20:11:45.475Z,17.60
2023-02-24T20:14:19.160Z,21.90
2023-02-24T20:16:47.292Z,19.23
2023-02-24T20:19:15.171Z,18.87
2023-02-24T20:21:42.450Z,18.90
2023-02-24T20:24:13.864Z,19.67
2023-02-24T20:26:44.744Z,21.10
2023-02-24T20:29:12.154Z,20.27
2023-02-24T20:31:40.510Z,19.53
2023-02-24T20:34:09.308Z,19.13
2023-02-24T20:36:36.546Z,19.93
2023-02-24T20:39:06.680Z,19.93
2023-02-24T20:41:34.468Z,19.33
2023-02-24T20:44:01.457Z,19.80
2023-02-24T20:46:31.279Z,20.07
2023-02-24T20:49:00.910Z,20.50
2023-02-24T20:51:29.490Z,21.83
2023-02-24T20:53:58.488Z,22.43
2023-02-24T20:56:27.853Z,20.80
2023-02-24T20:59:02.561Z,22.17
2023-02-24T21:01:31.231Z,20.57
2023-02-24T21:03:58.225Z,21.13
2023-02-24T21:06:26.146Z,18.27
2023-02-24T21:08:53.354Z,20.07
2023-02-24T21:11:22.250Z,21.73
2023-02-24T21:13:50.712Z,10.30
2023-02-24T21:16:19.065Z,9.13
2023-02-24T21:18:47.820Z,8.17
2023-02-24T21:21:15.398Z,6.63
2023-02-24T21:23:45.455Z,5.07
2023-02-24T21:26:12.969Z,3.70
2023-02-24T21:28:40.671Z,4.77
2023-02-24T21:31:13.170Z,3.97
2023-02-24T21:33:41.075Z,4.97
2023-02-24T21:36:10.901Z,7.63
2023-02-24T21:38:38.101Z,5.00
2023-02-24T21:41:07.863Z,12.77
2023-02-24T21:43:35.262Z,4.53
2023-02-24T21:46:05.535Z,6.07
2023-02-24T21:48:34.609Z,5.00
2023-02-24T21:51:06.283Z,17.10
2023-02-24T21:53:35.640Z,7.80
2023-02-24T21:56:17.542Z,6.73
2023-02-24T21:58:47.144Z,5.90
2023-02-24T22:01:17.246Z,6.67
2023-02-24T22:03:44.288Z,4.07
2023-02-24T22:06:13.067Z,3.50
2023-02-24T22:08:43.375Z,4.00
2023-02-24T22:11:12.460Z,3.83
2023-02-24T22:13:40.581Z,5.10
2023-02-24T22:16:13.962Z,8.87
2023-02-24T22:18:40.948Z,5.40
2023-02-24T22:21:09.502Z,6.20
2023-02-24T22:23:36.276Z,9.50
2023-02-24T22:26:08.941Z,5.13
2023-02-24T22:28:38.370Z,7.47
2023-02-24T22:31:06.612Z,6.47
2023-02-24T22:33:35.657Z,4.77
2023-02-24T22:36:04.173Z,5.43
2023-02-24T22:38:32.661Z,5.30
2023-02-24T22:41:05.113Z,5.50
2023-02-24T22:43:32.049Z,6.63
2023-02-24T22:46:05.091Z,6.70
2023-02-24T22:48:33.990Z,11.80
2023-02-24T22:51:02.637Z,5.70
2023-02-24T22:53:30.882Z,6.13
2023-02-24T22:55:58.008Z,8.13
2023-02-24T22:58:25.595Z,5.73
2023-02-24T23:00:56.478Z,6.47
2023-02-24T23:03:26.047Z,8.77
2023-02-24T23:05:55.983Z,5.27
2023-02-24T23:08:23.734Z,5.90
2023-02-24T23:10:50.679Z,7.23
2023-02-24T23:13:18.038Z,8.47
2023-02-24T23:15:44.989Z,6.50
2023-02-24T23:18:11.971Z,5.73
2023-02-24T23:20:38.687Z,5.53
2023-02-24T23:23:05.501Z,5.67
2023-02-24T23:25:32.231Z,5.30
2023-02-24T23:27:59.353Z,5.27
2023-02-24T23:30:26.103Z,6.43
2023-02-24T23:32:53.009Z,6.07
2023-02-24T23:35:19.888Z,5.53
2023-02-24T23:37:46.580Z,6.57
2023-02-24T23:40:16.717Z,5.73
2023-02-24T23:42:44.069Z,6.47
2023-02-24T23:45:11.126Z,5.70
2023-02-24T23:47:38.046Z,5.87
2023-02-24T23:50:05.020Z,8.33
2023-02-24T23:52:31.742Z,6.33
2023-02-24T23:54:58.508Z,5.37
2023-02-24T23:57:27.302Z,6.40
2023-02-24T23:59:54.189Z,5.97
